sensor_id;sensor_type;location;lat;lon;timestamp;P1;durP1;ratioP1;P2;durP2;ratioP2
8044;SDS011;4065;48.754;9.982;2022-07-23T00:01:13;9.18;;;6.80;;
8044;SDS011;4065;48.754;9.982;2022-07-23T00:04:15;7.43;;;6.72;;
8044;SDS011;4065;48.754;9.982;2022-07-23T00:07:19;8.27;;;6.63;;
8044;SDS011;4065;48.754;9.982;2022-07-23T00:10:20;7.28;;;6.22;;
8044;SDS011;4065;48.754;9.982;2022-07-23T00:13:22;7.53;;;6.75;;
8044;SDS011;4065;48.754;9.982;2022-07-23T00:16:25;7.05;;;6.38;;
8044;SDS011;4065;48.754;9.982;2022-07-23T00:19:27;7.47;;;6.78;;
8044;SDS011;4065;48.754;9.982;2022-07-23T00:22:29;6.85;;;6.15;;
8044;SDS011;4065;48.754;9.982;2022-07-23T00:25:30;8.13;;;6.65;;
8044;SDS011;4065;48.754;9.982;2022-07-23T00:28:32;8.85;;;6.63;;
8044;SDS011;4065;48.754;9.982;2022-07-23T00:31:38;7.22;;;6.57;;
8044;SDS011;4065;48.754;9.982;2022-07-23T00:34:40;6.85;;;6.15;;
8044;SDS011;4065;48.754;9.982;2022-07-23T00:37:41;7.32;;;6.57;;
8044;SDS011;4065;48.754;9.982;2022-07-23T00:40:43;7.60;;;6.88;;
8044;SDS011;4065;48.754;9.982;2022-07-23T00:43:45;8.18;;;6.65;;
8044;SDS011;4065;48.754;9.982;2022-07-23T00:46:49;7.63;;;6.80;;
8044;SDS011;4065;48.754;9.982;2022-07-23T00:49:53;6.72;;;6.13;;
8044;SDS011;4065;48.754;9.982;2022-07-23T00:52:54;7.13;;;6.43;;
8044;SDS011;4065;48.754;9.982;2022-07-23T00:55:56;7.57;;;6.72;;
8044;SDS011;4065;48.754;9.982;2022-07-23T00:58:58;7.63;;;6.82;;
8044;SDS011;4065;48.754;9.982;2022-07-23T01:02:02;7.30;;;6.55;;
8044;SDS011;4065;48.754;9.982;2022-07-23T01:05:04;7.43;;;6.35;;
8044;SDS011;4065;48.754;9.982;2022-07-23T01:08:06;7.72;;;6.82;;
8044;SDS011;4065;48.754;9.982;2022-07-23T01:11:08;8.07;;;6.05;;
8044;SDS011;4065;48.754;9.982;2022-07-23T01:14:13;8.57;;;6.53;;
8044;SDS011;4065;48.754;9.982;2022-07-23T01:17:17;6.75;;;6.15;;
8044;SDS011;4065;48.754;9.982;2022-07-23T01:20:19;7.60;;;6.90;;
8044;SDS011;4065;48.754;9.982;2022-07-23T01:23:22;7.57;;;6.40;;
8044;SDS011;4065;48.754;9.982;2022-07-23T01:26:24;6.93;;;6.22;;
8044;SDS011;4065;48.754;9.982;2022-07-23T01:29:25;7.43;;;6.63;;
8044;SDS011;4065;48.754;9.982;2022-07-23T01:32:27;6.78;;;6.18;;
8044;SDS011;4065;48.754;9.982;2022-07-23T01:35:28;7.45;;;6.75;;
8044;SDS011;4065;48.754;9.982;2022-07-23T01:38:31;9.50;;;6.53;;
8044;SDS011;4065;48.754;9.982;2022-07-23T01:41:33;7.47;;;6.70;;
8044;SDS011;4065;48.754;9.982;2022-07-23T01:44:35;6.13;;;5.35;;
8044;SDS011;4065;48.754;9.982;2022-07-23T01:47:37;6.10;;;5.60;;
8044;SDS011;4065;48.754;9.982;2022-07-23T01:50:38;6.78;;;6.10;;
8044;SDS011;4065;48.754;9.982;2022-07-23T01:53:41;6.60;;;6.00;;
8044;SDS011;4065;48.754;9.982;2022-07-23T01:56:43;9.95;;;5.88;;
8044;SDS011;4065;48.754;9.982;2022-07-23T01:59:44;6.55;;;5.85;;
8044;SDS011;4065;48.754;9.982;2022-07-23T02:02:46;6.20;;;5.70;;
8044;SDS011;4065;48.754;9.982;2022-07-23T02:05:47;6.57;;;5.97;;
8044;SDS011;4065;48.754;9.982;2022-07-23T02:08:50;7.82;;;6.57;;
8044;SDS011;4065;48.754;9.982;2022-07-23T02:11:52;6.78;;;5.85;;
8044;SDS011;4065;48.754;9.982;2022-07-23T02:14:54;7.43;;;6.30;;
8044;SDS011;4065;48.754;9.982;2022-07-23T02:17:55;6.72;;;6.03;;
8044;SDS011;4065;48.754;9.982;2022-07-23T02:20:57;6.82;;;6.13;;
8044;SDS011;4065;48.754;9.982;2022-07-23T02:24:00;6.75;;;6.00;;
8044;SDS011;4065;48.754;9.982;2022-07-23T02:27:01;6.57;;;5.85;;
8044;SDS011;4065;48.754;9.982;2022-07-23T02:30:03;6.28;;;5.68;;
8044;SDS011;4065;48.754;9.982;2022-07-23T02:33:05;7.10;;;5.90;;
8044;SDS011;4065;48.754;9.982;2022-07-23T02:36:07;7.20;;;5.85;;
8044;SDS011;4065;48.754;9.982;2022-07-23T02:39:10;6.80;;;6.13;;
8044;SDS011;4065;48.754;9.982;2022-07-23T02:42:12;6.80;;;6.10;;
8044;SDS011;4065;48.754;9.982;2022-07-23T02:45:14;7.63;;;6.85;;
8044;SDS011;4065;48.754;9.982;2022-07-23T02:48:15;6.90;;;6.20;;
8044;SDS011;4065;48.754;9.982;2022-07-23T02:51:17;7.03;;;6.35;;
8044;SDS011;4065;48.754;9.982;2022-07-23T02:54:20;6.72;;;6.03;;
8044;SDS011;4065;48.754;9.982;2022-07-23T02:57:21;7.65;;;6.85;;
8044;SDS011;4065;48.754;9.982;2022-07-23T03:00:23;8.98;;;6.78;;
8044;SDS011;4065;48.754;9.982;2022-07-23T03:03:24;7.65;;;6.80;;
8044;SDS011;4065;48.754;9.982;2022-07-23T03:06:26;7.38;;;6.68;;
8044;SDS011;4065;48.754;9.982;2022-07-23T03:09:29;6.75;;;6.15;;
8044;SDS011;4065;48.754;9.982;2022-07-23T03:12:30;7.97;;;6.57;;
8044;SDS011;4065;48.754;9.982;2022-07-23T03:15:32;6.65;;;5.93;;
8044;SDS011;4065;48.754;9.982;2022-07-23T03:18:33;7.40;;;6.70;;
8044;SDS011;4065;48.754;9.982;2022-07-23T03:21:35;10.30;;;6.22;;
8044;SDS011;4065;48.754;9.982;2022-07-23T03:24:41;8.00;;;7.18;;
8044;SDS011;4065;48.754;9.982;2022-07-23T03:27:55;7.65;;;6.88;;
8044;SDS011;4065;48.754;9.982;2022-07-23T03:30:56;8.15;;;6.78;;
8044;SDS011;4065;48.754;9.982;2022-07-23T03:33:58;6.65;;;6.00;;
8044;SDS011;4065;48.754;9.982;2022-07-23T03:37:00;7.43;;;6.53;;
8044;SDS011;4065;48.754;9.982;2022-07-23T03:40:05;6.82;;;6.13;;
8044;SDS011;4065;48.754;9.982;2022-07-23T03:43:11;7.93;;;7.13;;
8044;SDS011;4065;48.754;9.982;2022-07-23T03:46:16;7.97;;;6.75;;
8044;SDS011;4065;48.754;9.982;2022-07-23T03:49:17;7.50;;;6.78;;
8044;SDS011;4065;48.754;9.982;2022-07-23T03:52:19;7.03;;;6.32;;
8044;SDS011;4065;48.754;9.982;2022-07-23T03:55:22;9.23;;;7.13;;
8044;SDS011;4065;48.754;9.982;2022-07-23T03:58:26;8.05;;;7.20;;
8044;SDS011;4065;48.754;9.982;2022-07-23T04:01:28;7.65;;;6.93;;
8044;SDS011;4065;48.754;9.982;2022-07-23T04:04:30;8.93;;;6.97;;
8044;SDS011;4065;48.754;9.982;2022-07-23T04:07:33;9.30;;;6.47;;
8044;SDS011;4065;48.754;9.982;2022-07-23T04:10:39;7.93;;;7.13;;
8044;SDS011;4065;48.754;9.982;2022-07-23T04:13:40;7.18;;;6.47;;
8044;SDS011;4065;48.754;9.982;2022-07-23T04:16:42;10.32;;;6.65;;
8044;SDS011;4065;48.754;9.982;2022-07-23T04:19:46;7.72;;;7.03;;
8044;SDS011;4065;48.754;9.982;2022-07-23T04:22:50;7.57;;;6.53;;
8044;SDS011;4065;48.754;9.982;2022-07-23T04:25:55;7.32;;;6.63;;
8044;SDS011;4065;48.754;9.982;2022-07-23T04:28:57;7.57;;;6.80;;
8044;SDS011;4065;48.754;9.982;2022-07-23T04:31:58;8.60;;;6.90;;
8044;SDS011;4065;48.754;9.982;2022-07-23T04:35:01;7.38;;;6.60;;
8044;SDS011;4065;48.754;9.982;2022-07-23T04:38:06;7.10;;;6.40;;
8044;SDS011;4065;48.754;9.982;2022-07-23T04:41:09;7.28;;;6.57;;
8044;SDS011;4065;48.754;9.982;2022-07-23T04:44:11;7.82;;;7.10;;
8044;SDS011;4065;48.754;9.982;2022-07-23T04:47:12;7.50;;;6.80;;
8044;SDS011;4065;48.754;9.982;2022-07-23T04:50:14;6.93;;;6.22;;
8044;SDS011;4065;48.754;9.982;2022-07-23T04:53:18;7.60;;;6.68;;
8044;SDS011;4065;48.754;9.982;2022-07-23T04:56:21;8.05;;;7.22;;
8044;SDS011;4065;48.754;9.982;2022-07-23T04:59:23;6.95;;;6.32;;
8044;SDS011;4065;48.754;9.982;2022-07-23T05:02:24;8.98;;;7.00;;
8044;SDS011;4065;48.754;9.982;2022-07-23T05:05:26;7.43;;;6.72;;
8044;SDS011;4065;48.754;9.982;2022-07-23T05:08:28;7.55;;;6.82;;
8044;SDS011;4065;48.754;9.982;2022-07-23T05:11:31;7.43;;;6.70;;
8044;SDS011;4065;48.754;9.982;2022-07-23T05:14:35;8.75;;;6.50;;
8044;SDS011;4065;48.754;9.982;2022-07-23T05:17:37;7.70;;;6.88;;
8044;SDS011;4065;48.754;9.982;2022-07-23T05:20:38;7.40;;;6.70;;
8044;SDS011;4065;48.754;9.982;2022-07-23T05:23:40;7.30;;;6.55;;
8044;SDS011;4065;48.754;9.982;2022-07-23T05:26:44;7.65;;;6.95;;
8044;SDS011;4065;48.754;9.982;2022-07-23T05:29:46;7.75;;;6.90;;
8044;SDS011;4065;48.754;9.982;2022-07-23T05:32:47;7.28;;;6.63;;
8044;SDS011;4065;48.754;9.982;2022-07-23T05:35:51;7.45;;;6.75;;
8044;SDS011;4065;48.754;9.982;2022-07-23T05:38:55;7.28;;;6.57;;
8044;SDS011;4065;48.754;9.982;2022-07-23T05:41:58;7.88;;;6.95;;
8044;SDS011;4065;48.754;9.982;2022-07-23T05:44:59;8.45;;;7.40;;
8044;SDS011;4065;48.754;9.982;2022-07-23T05:48:02;7.18;;;6.45;;
8044;SDS011;4065;48.754;9.982;2022-07-23T05:51:07;7.60;;;6.80;;
8044;SDS011;4065;48.754;9.982;2022-07-23T05:54:09;7.03;;;6.32;;
8044;SDS011;4065;48.754;9.982;2022-07-23T05:57:11;7.45;;;6.75;;
8044;SDS011;4065;48.754;9.982;2022-07-23T06:00:13;7.28;;;6.55;;
8044;SDS011;4065;48.754;9.982;2022-07-23T06:03:18;7.45;;;6.28;;
8044;SDS011;4065;48.754;9.982;2022-07-23T06:06:22;14.23;;;7.20;;
8044;SDS011;4065;48.754;9.982;2022-07-23T06:09:24;11.15;;;6.97;;
8044;SDS011;4065;48.754;9.982;2022-07-23T06:12:28;8.48;;;7.03;;
8044;SDS011;4065;48.754;9.982;2022-07-23T06:15:34;7.65;;;6.90;;
8044;SDS011;4065;48.754;9.982;2022-07-23T06:18:39;9.57;;;6.45;;
8044;SDS011;4065;48.754;9.982;2022-07-23T06:21:43;7.40;;;6.70;;
8044;SDS011;4065;48.754;9.982;2022-07-23T06:24:45;7.40;;;6.70;;
8044;SDS011;4065;48.754;9.982;2022-07-23T06:27:50;7.25;;;6.53;;
8044;SDS011;4065;48.754;9.982;2022-07-23T06:30:52;8.13;;;6.90;;
8044;SDS011;4065;48.754;9.982;2022-07-23T06:33:55;6.75;;;6.10;;
8044;SDS011;4065;48.754;9.982;2022-07-23T06:36:57;6.88;;;6.25;;
8044;SDS011;4065;48.754;9.982;2022-07-23T06:40:01;7.63;;;6.82;;
8044;SDS011;4065;48.754;9.982;2022-07-23T06:43:04;7.28;;;6.53;;
8044;SDS011;4065;48.754;9.982;2022-07-23T06:46:08;7.18;;;6.47;;
8044;SDS011;4065;48.754;9.982;2022-07-23T06:49:10;7.32;;;6.32;;
8044;SDS011;4065;48.754;9.982;2022-07-23T06:52:12;6.93;;;6.22;;
8044;SDS011;4065;48.754;9.982;2022-07-23T06:55:13;6.82;;;6.10;;
8044;SDS011;4065;48.754;9.982;2022-07-23T06:58:16;7.38;;;6.10;;
8044;SDS011;4065;48.754;9.982;2022-07-23T07:01:19;7.35;;;6.40;;
8044;SDS011;4065;48.754;9.982;2022-07-23T07:04:21;6.93;;;6.22;;
8044;SDS011;4065;48.754;9.982;2022-07-23T07:07:23;7.93;;;5.82;;
8044;SDS011;4065;48.754;9.982;2022-07-23T07:10:24;6.40;;;5.90;;
8044;SDS011;4065;48.754;9.982;2022-07-23T07:13:27;7.68;;;5.95;;
8044;SDS011;4065;48.754;9.982;2022-07-23T07:16:29;6.72;;;6.10;;
8044;SDS011;4065;48.754;9.982;2022-07-23T07:19:33;6.28;;;5.70;;
8044;SDS011;4065;48.754;9.982;2022-07-23T07:22:35;6.53;;;5.90;;
8044;SDS011;4065;48.754;9.982;2022-07-23T07:25:39;7.55;;;5.90;;
8044;SDS011;4065;48.754;9.982;2022-07-23T07:28:41;7.43;;;6.03;;
8044;SDS011;4065;48.754;9.982;2022-07-23T07:31:43;6.13;;;5.53;;
8044;SDS011;4065;48.754;9.982;2022-07-23T07:34:45;6.18;;;5.57;;
8044;SDS011;4065;48.754;9.982;2022-07-23T07:37:46;8.25;;;5.95;;
8044;SDS011;4065;48.754;9.982;2022-07-23T07:40:51;6.80;;;6.00;;
8044;SDS011;4065;48.754;9.982;2022-07-23T07:43:54;6.05;;;5.55;;
8044;SDS011;4065;48.754;9.982;2022-07-23T07:46:55;6.97;;;6.03;;
8044;SDS011;4065;48.754;9.982;2022-07-23T07:49:57;5.97;;;5.47;;
8044;SDS011;4065;48.754;9.982;2022-07-23T07:52:59;6.10;;;5.60;;
8044;SDS011;4065;48.754;9.982;2022-07-23T07:56:01;6.53;;;5.93;;
8044;SDS011;4065;48.754;9.982;2022-07-23T07:59:04;7.53;;;6.63;;
8044;SDS011;4065;48.754;9.982;2022-07-23T08:02:06;7.43;;;6.72;;
8044;SDS011;4065;48.754;9.982;2022-07-23T08:05:11;7.40;;;6.72;;
8044;SDS011;4065;48.754;9.982;2022-07-23T08:08:12;7.55;;;6.85;;
8044;SDS011;4065;48.754;9.982;2022-07-23T08:11:16;7.53;;;6.82;;
8044;SDS011;4065;48.754;9.982;2022-07-23T08:14:19;9.23;;;6.90;;
8044;SDS011;4065;48.754;9.982;2022-07-23T08:20:34;9.13;;;7.10;;
8044;SDS011;4065;48.754;9.982;2022-07-23T08:23:40;10.93;;;7.30;;
8044;SDS011;4065;48.754;9.982;2022-07-23T08:26:42;86.13;;;15.60;;
8044;SDS011;4065;48.754;9.982;2022-07-23T08:29:48;12.95;;;7.15;;
8044;SDS011;4065;48.754;9.982;2022-07-23T08:32:54;15.52;;;7.75;;
8044;SDS011;4065;48.754;9.982;2022-07-23T08:35:56;35.92;;;8.98;;
8044;SDS011;4065;48.754;9.982;2022-07-23T08:39:00;7.20;;;6.47;;
8044;SDS011;4065;48.754;9.982;2022-07-23T08:42:03;9.60;;;7.47;;
8044;SDS011;4065;48.754;9.982;2022-07-23T08:45:07;8.38;;;7.57;;
8044;SDS011;4065;48.754;9.982;2022-07-23T08:48:11;9.35;;;7.50;;
8044;SDS011;4065;48.754;9.982;2022-07-23T08:51:14;71.75;;;12.13;;
8044;SDS011;4065;48.754;9.982;2022-07-23T08:54:15;9.73;;;7.03;;
8044;SDS011;4065;48.754;9.982;2022-07-23T08:57:17;9.13;;;6.90;;
8044;SDS011;4065;48.754;9.982;2022-07-23T09:00:21;9.55;;;7.32;;
8044;SDS011;4065;48.754;9.982;2022-07-23T09:03:25;10.45;;;7.75;;
8044;SDS011;4065;48.754;9.982;2022-07-23T09:06:28;10.25;;;7.45;;
8044;SDS011;4065;48.754;9.982;2022-07-23T09:09:30;11.27;;;6.97;;
8044;SDS011;4065;48.754;9.982;2022-07-23T09:12:34;8.38;;;6.82;;
8044;SDS011;4065;48.754;9.982;2022-07-23T09:15:40;8.73;;;6.80;;
8044;SDS011;4065;48.754;9.982;2022-07-23T09:18:51;7.65;;;6.88;;
8044;SDS011;4065;48.754;9.982;2022-07-23T09:21:53;9.75;;;7.45;;
8044;SDS011;4065;48.754;9.982;2022-07-23T09:25:05;8.13;;;7.32;;
8044;SDS011;4065;48.754;9.982;2022-07-23T09:28:08;9.55;;;7.38;;
8044;SDS011;4065;48.754;9.982;2022-07-23T09:31:11;7.75;;;7.05;;
8044;SDS011;4065;48.754;9.982;2022-07-23T09:34:13;9.95;;;7.45;;
8044;SDS011;4065;48.754;9.982;2022-07-23T09:37:17;9.07;;;7.85;;
8044;SDS011;4065;48.754;9.982;2022-07-23T09:40:19;9.45;;;7.43;;
8044;SDS011;4065;48.754;9.982;2022-07-23T09:43:25;8.20;;;7.45;;
8044;SDS011;4065;48.754;9.982;2022-07-23T09:46:30;8.48;;;7.55;;
8044;SDS011;4065;48.754;9.982;2022-07-23T09:49:31;8.52;;;7.55;;
8044;SDS011;4065;48.754;9.982;2022-07-23T09:52:33;8.15;;;7.35;;
8044;SDS011;4065;48.754;9.982;2022-07-23T09:55:42;10.38;;;7.95;;
8044;SDS011;4065;48.754;9.982;2022-07-23T09:58:43;8.68;;;7.88;;
8044;SDS011;4065;48.754;9.982;2022-07-23T10:01:50;9.55;;;8.05;;
8044;SDS011;4065;48.754;9.982;2022-07-23T10:04:53;8.70;;;7.75;;
8044;SDS011;4065;48.754;9.982;2022-07-23T10:07:55;8.95;;;8.00;;
8044;SDS011;4065;48.754;9.982;2022-07-23T10:10:59;8.25;;;7.45;;
8044;SDS011;4065;48.754;9.982;2022-07-23T10:14:02;9.32;;;8.05;;
8044;SDS011;4065;48.754;9.982;2022-07-23T10:17:06;8.32;;;7.47;;
8044;SDS011;4065;48.754;9.982;2022-07-23T10:20:09;8.57;;;7.75;;
8044;SDS011;4065;48.754;9.982;2022-07-23T10:23:12;8.18;;;7.18;;
8044;SDS011;4065;48.754;9.982;2022-07-23T10:26:19;7.80;;;7.00;;
8044;SDS011;4065;48.754;9.982;2022-07-23T10:29:27;8.00;;;7.20;;
8044;SDS011;4065;48.754;9.982;2022-07-23T10:32:43;8.63;;;7.82;;
8044;SDS011;4065;48.754;9.982;2022-07-23T10:35:51;7.13;;;6.45;;
8044;SDS011;4065;48.754;9.982;2022-07-23T10:38:56;8.10;;;7.30;;
8044;SDS011;4065;48.754;9.982;2022-07-23T10:42:10;8.60;;;7.82;;
8044;SDS011;4065;48.754;9.982;2022-07-23T10:45:23;7.63;;;6.82;;
8044;SDS011;4065;48.754;9.982;2022-07-23T10:48:30;7.13;;;6.30;;
8044;SDS011;4065;48.754;9.982;2022-07-23T10:51:32;7.35;;;6.65;;
8044;SDS011;4065;48.754;9.982;2022-07-23T10:54:36;8.13;;;7.03;;
8044;SDS011;4065;48.754;9.982;2022-07-23T10:57:47;8.18;;;6.57;;
8044;SDS011;4065;48.754;9.982;2022-07-23T11:00:52;7.22;;;6.55;;
8044;SDS011;4065;48.754;9.982;2022-07-23T11:03:57;7.68;;;6.93;;
8044;SDS011;4065;48.754;9.982;2022-07-23T11:07:08;7.07;;;6.38;;
8044;SDS011;4065;48.754;9.982;2022-07-23T11:10:14;7.13;;;6.10;;
8044;SDS011;4065;48.754;9.982;2022-07-23T11:13:39;7.50;;;6.68;;
8044;SDS011;4065;48.754;9.982;2022-07-23T11:16:50;7.63;;;6.75;;
8044;SDS011;4065;48.754;9.982;2022-07-23T11:23:22;6.90;;;6.30;;
8044;SDS011;4065;48.754;9.982;2022-07-23T11:29:53;7.43;;;6.70;;
8044;SDS011;4065;48.754;9.982;2022-07-23T11:33:15;8.02;;;7.22;;
8044;SDS011;4065;48.754;9.982;2022-07-23T11:36:22;9.75;;;6.65;;
8044;SDS011;4065;48.754;9.982;2022-07-23T11:39:25;7.38;;;6.68;;
8044;SDS011;4065;48.754;9.982;2022-07-23T11:42:27;7.70;;;6.90;;
8044;SDS011;4065;48.754;9.982;2022-07-23T11:45:31;7.15;;;6.55;;
8044;SDS011;4065;48.754;9.982;2022-07-23T11:48:34;7.50;;;6.68;;
8044;SDS011;4065;48.754;9.982;2022-07-23T11:51:42;7.53;;;6.68;;
8044;SDS011;4065;48.754;9.982;2022-07-23T11:54:48;8.07;;;7.28;;
8044;SDS011;4065;48.754;9.982;2022-07-23T11:57:52;6.95;;;6.35;;
8044;SDS011;4065;48.754;9.982;2022-07-23T12:00:54;7.55;;;6.18;;
8044;SDS011;4065;48.754;9.982;2022-07-23T12:03:59;7.25;;;6.55;;
8044;SDS011;4065;48.754;9.982;2022-07-23T12:07:05;7.60;;;6.32;;
8044;SDS011;4065;48.754;9.982;2022-07-23T12:10:27;6.50;;;5.75;;
8044;SDS011;4065;48.754;9.982;2022-07-23T12:13:29;6.63;;;6.03;;
8044;SDS011;4065;48.754;9.982;2022-07-23T12:16:31;8.23;;;6.90;;
8044;SDS011;4065;48.754;9.982;2022-07-23T12:19:35;6.93;;;6.32;;
8044;SDS011;4065;48.754;9.982;2022-07-23T12:22:40;6.20;;;5.60;;
8044;SDS011;4065;48.754;9.982;2022-07-23T12:25:43;7.15;;;6.43;;
8044;SDS011;4065;48.754;9.982;2022-07-23T12:28:51;6.93;;;6.32;;
8044;SDS011;4065;48.754;9.982;2022-07-23T12:31:53;7.22;;;6.53;;
8044;SDS011;4065;48.754;9.982;2022-07-23T12:35:03;7.13;;;5.95;;
8044;SDS011;4065;48.754;9.982;2022-07-23T12:38:11;7.82;;;6.35;;
8044;SDS011;4065;48.754;9.982;2022-07-23T12:41:16;6.47;;;5.88;;
8044;SDS011;4065;48.754;9.982;2022-07-23T12:44:18;6.88;;;5.97;;
8044;SDS011;4065;48.754;9.982;2022-07-23T12:47:20;6.85;;;6.20;;
8044;SDS011;4065;48.754;9.982;2022-07-23T12:50:31;6.03;;;5.50;;
8044;SDS011;4065;48.754;9.982;2022-07-23T12:53:44;6.30;;;5.70;;
8044;SDS011;4065;48.754;9.982;2022-07-23T12:56:49;6.68;;;6.07;;
8044;SDS011;4065;48.754;9.982;2022-07-23T12:59:51;7.05;;;6.43;;
8044;SDS011;4065;48.754;9.982;2022-07-23T13:02:53;6.70;;;6.10;;
8044;SDS011;4065;48.754;9.982;2022-07-23T13:05:55;7.18;;;6.43;;
8044;SDS011;4065;48.754;9.982;2022-07-23T13:09:01;6.95;;;6.25;;
8044;SDS011;4065;48.754;9.982;2022-07-23T13:12:07;6.53;;;5.85;;
8044;SDS011;4065;48.754;9.982;2022-07-23T13:15:09;6.72;;;5.97;;
8044;SDS011;4065;48.754;9.982;2022-07-23T13:18:12;6.88;;;6.28;;
8044;SDS011;4065;48.754;9.982;2022-07-23T13:21:14;6.45;;;5.85;;
8044;SDS011;4065;48.754;9.982;2022-07-23T13:24:20;6.07;;;5.55;;
8044;SDS011;4065;48.754;9.982;2022-07-23T13:27:22;6.57;;;5.97;;
8044;SDS011;4065;48.754;9.982;2022-07-23T13:30:23;6.43;;;5.78;;
8044;SDS011;4065;48.754;9.982;2022-07-23T13:33:25;7.13;;;5.80;;
8044;SDS011;4065;48.754;9.982;2022-07-23T13:36:27;6.35;;;5.40;;
8044;SDS011;4065;48.754;9.982;2022-07-23T13:39:30;5.38;;;4.88;;
8044;SDS011;4065;48.754;9.982;2022-07-23T13:42:35;5.78;;;5.28;;
8044;SDS011;4065;48.754;9.982;2022-07-23T13:45:37;5.93;;;5.30;;
8044;SDS011;4065;48.754;9.982;2022-07-23T13:48:39;6.35;;;5.75;;
8044;SDS011;4065;48.754;9.982;2022-07-23T13:51:41;6.72;;;6.13;;
8044;SDS011;4065;48.754;9.982;2022-07-23T13:54:44;6.10;;;5.50;;
8044;SDS011;4065;48.754;9.982;2022-07-23T13:57:46;6.28;;;5.78;;
8044;SDS011;4065;48.754;9.982;2022-07-23T14:00:48;6.70;;;5.57;;
8044;SDS011;4065;48.754;9.982;2022-07-23T14:03:54;5.93;;;5.13;;
8044;SDS011;4065;48.754;9.982;2022-07-23T14:06:56;6.32;;;5.72;;
8044;SDS011;4065;48.754;9.982;2022-07-23T14:09:59;6.32;;;5.60;;
8044;SDS011;4065;48.754;9.982;2022-07-23T14:13:03;6.20;;;5.57;;
8044;SDS011;4065;48.754;9.982;2022-07-23T14:16:08;6.18;;;5.60;;
8044;SDS011;4065;48.754;9.982;2022-07-23T14:19:10;6.13;;;5.57;;
8044;SDS011;4065;48.754;9.982;2022-07-23T14:22:15;5.78;;;5.25;;
8044;SDS011;4065;48.754;9.982;2022-07-23T14:25:18;5.63;;;5.13;;
8044;SDS011;4065;48.754;9.982;2022-07-23T14:28:20;5.85;;;5.25;;
8044;SDS011;4065;48.754;9.982;2022-07-23T14:31:21;5.72;;;5.18;;
8044;SDS011;4065;48.754;9.982;2022-07-23T14:34:23;5.97;;;5.22;;
8044;SDS011;4065;48.754;9.982;2022-07-23T14:37:27;6.15;;;5.53;;
8044;SDS011;4065;48.754;9.982;2022-07-23T14:40:30;6.30;;;5.70;;
8044;SDS011;4065;48.754;9.982;2022-07-23T14:43:32;5.80;;;5.22;;
8044;SDS011;4065;48.754;9.982;2022-07-23T14:46:33;5.38;;;4.90;;
8044;SDS011;4065;48.754;9.982;2022-07-23T14:49:35;6.43;;;5.70;;
8044;SDS011;4065;48.754;9.982;2022-07-23T14:52:39;6.30;;;5.35;;
8044;SDS011;4065;48.754;9.982;2022-07-23T14:55:43;6.88;;;5.15;;
8044;SDS011;4065;48.754;9.982;2022-07-23T14:58:44;6.15;;;5.55;;
8044;SDS011;4065;48.754;9.982;2022-07-23T15:01:48;6.20;;;5.60;;
8044;SDS011;4065;48.754;9.982;2022-07-23T15:04:50;6.60;;;5.95;;
8044;SDS011;4065;48.754;9.982;2022-07-23T15:07:52;6.28;;;5.78;;
8044;SDS011;4065;48.754;9.982;2022-07-23T15:10:57;6.00;;;5.47;;
8044;SDS011;4065;48.754;9.982;2022-07-23T15:14:01;6.60;;;6.00;;
8044;SDS011;4065;48.754;9.982;2022-07-23T15:17:03;6.28;;;5.65;;
8044;SDS011;4065;48.754;9.982;2022-07-23T15:20:05;6.65;;;5.65;;
8044;SDS011;4065;48.754;9.982;2022-07-23T15:23:09;7.30;;;6.60;;
8044;SDS011;4065;48.754;9.982;2022-07-23T15:26:14;6.85;;;6.15;;
8044;SDS011;4065;48.754;9.982;2022-07-23T15:29:16;7.85;;;7.05;;
8044;SDS011;4065;48.754;9.982;2022-07-23T15:32:17;7.10;;;6.40;;
8044;SDS011;4065;48.754;9.982;2022-07-23T15:35:19;6.72;;;5.95;;
8044;SDS011;4065;48.754;9.982;2022-07-23T15:38:21;6.95;;;6.35;;
8044;SDS011;4065;48.754;9.982;2022-07-23T15:41:24;7.55;;;6.72;;
8044;SDS011;4065;48.754;9.982;2022-07-23T15:44:26;6.97;;;6.38;;
8044;SDS011;4065;48.754;9.982;2022-07-23T15:47:28;8.00;;;7.20;;
8044;SDS011;4065;48.754;9.982;2022-07-23T15:50:30;7.38;;;6.68;;
8044;SDS011;4065;48.754;9.982;2022-07-23T15:53:31;7.32;;;6.63;;
8044;SDS011;4065;48.754;9.982;2022-07-23T15:56:35;7.25;;;6.60;;
8044;SDS011;4065;48.754;9.982;2022-07-23T15:59:38;7.68;;;6.97;;
8044;SDS011;4065;48.754;9.982;2022-07-23T16:02:40;7.57;;;6.88;;
8044;SDS011;4065;48.754;9.982;2022-07-23T16:05:42;6.97;;;6.28;;
8044;SDS011;4065;48.754;9.982;2022-07-23T16:08:43;7.10;;;6.47;;
8044;SDS011;4065;48.754;9.982;2022-07-23T16:11:47;7.07;;;6.35;;
8044;SDS011;4065;48.754;9.982;2022-07-23T16:14:49;7.28;;;6.57;;
8044;SDS011;4065;48.754;9.982;2022-07-23T16:17:50;6.93;;;6.32;;
8044;SDS011;4065;48.754;9.982;2022-07-23T16:20:53;7.25;;;6.47;;
8044;SDS011;4065;48.754;9.982;2022-07-23T16:23:55;7.75;;;6.40;;
8044;SDS011;4065;48.754;9.982;2022-07-23T16:26:58;7.05;;;6.20;;
8044;SDS011;4065;48.754;9.982;2022-07-23T16:29:59;7.60;;;6.75;;
8044;SDS011;4065;48.754;9.982;2022-07-23T16:33:01;6.85;;;6.25;;
8044;SDS011;4065;48.754;9.982;2022-07-23T16:36:03;7.60;;;6.68;;
8044;SDS011;4065;48.754;9.982;2022-07-23T16:39:05;6.90;;;6.20;;
8044;SDS011;4065;48.754;9.982;2022-07-23T16:42:08;7.15;;;6.22;;
8044;SDS011;4065;48.754;9.982;2022-07-23T16:45:10;6.97;;;6.38;;
8044;SDS011;4065;48.754;9.982;2022-07-23T16:48:12;7.13;;;6.43;;
8044;SDS011;4065;48.754;9.982;2022-07-23T16:51:14;6.95;;;6.25;;
8044;SDS011;4065;48.754;9.982;2022-07-23T16:54:16;6.75;;;6.07;;
8044;SDS011;4065;48.754;9.982;2022-07-23T16:57:20;7.45;;;6.63;;
8044;SDS011;4065;48.754;9.982;2022-07-23T17:00:24;7.40;;;6.70;;
8044;SDS011;4065;48.754;9.982;2022-07-23T17:03:26;7.30;;;6.63;;
8044;SDS011;4065;48.754;9.982;2022-07-23T17:06:29;7.38;;;6.68;;
8044;SDS011;4065;48.754;9.982;2022-07-23T17:09:31;7.90;;;6.20;;
8044;SDS011;4065;48.754;9.982;2022-07-23T17:12:36;7.35;;;6.63;;
8044;SDS011;4065;48.754;9.982;2022-07-23T17:15:38;7.22;;;6.35;;
8044;SDS011;4065;48.754;9.982;2022-07-23T17:18:40;7.20;;;6.60;;
8044;SDS011;4065;48.754;9.982;2022-07-23T17:21:41;7.35;;;6.65;;
8044;SDS011;4065;48.754;9.982;2022-07-23T17:24:43;7.53;;;6.80;;
8044;SDS011;4065;48.754;9.982;2022-07-23T17:27:48;7.75;;;6.95;;
8044;SDS011;4065;48.754;9.982;2022-07-23T17:30:50;7.65;;;6.78;;
8044;SDS011;4065;48.754;9.982;2022-07-23T17:33:52;7.90;;;7.13;;
8044;SDS011;4065;48.754;9.982;2022-07-23T17:36:54;8.68;;;7.20;;
8044;SDS011;4065;48.754;9.982;2022-07-23T17:39:55;8.27;;;7.57;;
8044;SDS011;4065;48.754;9.982;2022-07-23T17:42:58;8.50;;;6.97;;
8044;SDS011;4065;48.754;9.982;2022-07-23T17:46:00;7.93;;;7.20;;
8044;SDS011;4065;48.754;9.982;2022-07-23T17:49:02;8.85;;;7.95;;
8044;SDS011;4065;48.754;9.982;2022-07-23T17:52:04;9.63;;;8.60;;
8044;SDS011;4065;48.754;9.982;2022-07-23T17:55:06;9.63;;;7.93;;
8044;SDS011;4065;48.754;9.982;2022-07-23T17:58:09;11.30;;;9.07;;
8044;SDS011;4065;48.754;9.982;2022-07-23T18:01:12;9.57;;;8.57;;
8044;SDS011;4065;48.754;9.982;2022-07-23T18:04:14;10.40;;;9.30;;
8044;SDS011;4065;48.754;9.982;2022-07-23T18:07:19;10.68;;;9.27;;
8044;SDS011;4065;48.754;9.982;2022-07-23T18:10:22;10.48;;;9.43;;
8044;SDS011;4065;48.754;9.982;2022-07-23T18:13:25;9.57;;;8.57;;
8044;SDS011;4065;48.754;9.982;2022-07-23T18:16:27;11.23;;;9.15;;
8044;SDS011;4065;48.754;9.982;2022-07-23T18:19:29;10.93;;;8.85;;
8044;SDS011;4065;48.754;9.982;2022-07-23T18:22:30;11.50;;;9.40;;
8044;SDS011;4065;48.754;9.982;2022-07-23T18:25:32;10.18;;;9.15;;
8044;SDS011;4065;48.754;9.982;2022-07-23T18:28:35;11.13;;;8.90;;
8044;SDS011;4065;48.754;9.982;2022-07-23T18:31:37;13.60;;;9.27;;
8044;SDS011;4065;48.754;9.982;2022-07-23T18:34:42;10.38;;;9.05;;
8044;SDS011;4065;48.754;9.982;2022-07-23T18:37:43;9.73;;;8.73;;
8044;SDS011;4065;48.754;9.982;2022-07-23T18:40:45;10.35;;;9.35;;
8044;SDS011;4065;48.754;9.982;2022-07-23T18:43:52;10.23;;;9.23;;
8044;SDS011;4065;48.754;9.982;2022-07-23T18:46:53;9.75;;;8.68;;
8044;SDS011;4065;48.754;9.982;2022-07-23T18:49:55;9.85;;;8.85;;
8044;SDS011;4065;48.754;9.982;2022-07-23T18:52:57;9.88;;;8.55;;
8044;SDS011;4065;48.754;9.982;2022-07-23T18:55:58;12.82;;;9.48;;
8044;SDS011;4065;48.754;9.982;2022-07-23T18:59:01;9.65;;;8.75;;
8044;SDS011;4065;48.754;9.982;2022-07-23T19:02:03;9.35;;;8.50;;
8044;SDS011;4065;48.754;9.982;2022-07-23T19:05:05;9.05;;;8.23;;
8044;SDS011;4065;48.754;9.982;2022-07-23T19:08:08;9.50;;;8.60;;